Time;durP1;ratioP1;P1;durP2;ratioP2;P2;SDS_P1;SDS_P2;PMS_P1;PMS_P2;Temp;Humidity;BMP_temperature;BMP_pressure;BME280_temperature;BME280_humidity;BME280_pressure;Samples;Min_cycle;Max_cycle;Signal;HPM_P1;HPM_P2
2023/02/09 00:01:04;;;;;;;9.32;3.65;;;-0.30;99.90;;;;;;5033742;28;20036;-76
2023/02/09 00:03:33;;;;;;;10.75;4.43;;;-0.30;99.90;;;;;;5034646;28;20030;-76
2023/02/09 00:06:05;;;;;;;12.05;4.20;;;-0.30;99.90;;;;;;5034866;28;20017;-76
2023/02/09 00:08:35;;;;;;;10.82;4.10;;;-0.30;99.90;;;;;;5034653;28;20495;-77
2023/02/09 00:11:08;;;;;;;10.20;3.67;;;-0.50;99.90;;;;;;5034582;28;20029;-76
2023/02/09 00:13:34;;;;;;;8.40;4.35;;;-0.40;99.90;;;;;;5036090;28;20021;-77
2023/02/09 00:16:01;;;;;;;12.80;4.05;;;-0.40;99.90;;;;;;5034692;28;20511;-77
2023/02/09 00:18:28;;;;;;;13.25;4.10;;;-0.50;99.90;;;;;;5035873;28;20022;-76
2023/02/09 00:21:07;;;;;;;10.25;4.53;;;-0.50;99.90;;;;;;5034341;28;20116;-77
2023/02/09 00:23:36;;;;;;;13.70;3.90;;;-0.50;99.90;;;;;;5034460;28;20018;-76
2023/02/09 00:26:05;;;;;;;15.02;4.43;;;-0.50;99.90;;;;;;5035724;28;20546;-77
2023/02/09 00:28:31;;;;;;;10.48;3.95;;;-0.50;99.90;;;;;;5034272;28;20120;-76
2023/02/09 00:30:57;;;;;;;10.93;4.20;;;-0.60;99.90;;;;;;5035745;28;20563;-76
2023/02/09 00:33:22;;;;;;;13.43;3.92;;;-0.60;99.90;;;;;;5035544;28;20369;-77
2023/02/09 00:35:54;;;;;;;10.80;4.13;;;-0.60;99.90;;;;;;5034304;28;20032;-76
2023/02/09 00:38:20;;;;;;;10.90;4.15;;;-0.60;99.90;;;;;;5035857;28;20029;-76
2023/02/09 00:40:46;;;;;;;12.45;4.45;;;-0.70;99.90;;;;;;5034112;28;20017;-76
2023/02/09 00:43:12;;;;;;;9.10;3.80;;;-0.70;99.90;;;;;;5033902;28;20021;-76
2023/02/09 00:45:38;;;;;;;13.05;4.22;;;-0.70;99.90;;;;;;5035450;28;20032;-76
2023/02/09 00:48:03;;;;;;;10.98;4.07;;;-0.80;99.90;;;;;;5034073;28;20068;-76
2023/02/09 00:50:32;;;;;;;11.07;4.40;;;-0.80;99.90;;;;;;5035154;28;20072;-76
2023/02/09 00:52:57;;;;;;;11.07;3.47;;;-0.80;99.90;;;;;;5035403;28;20022;-76
2023/02/09 00:55:23;;;;;;;9.43;4.03;;;-0.80;99.90;;;;;;5033973;28;20032;-76
2023/02/09 00:57:49;;;;;;;11.38;3.60;;;-0.80;99.90;;;;;;5035340;28;20522;-76
2023/02/09 01:00:16;;;;;;;15.30;4.90;;;-0.80;99.90;;;;;;5035421;28;20029;-76
2023/02/09 01:02:41;;;;;;;13.57;4.60;;;-0.80;99.90;;;;;;5034077;28;20029;-76
2023/02/09 01:05:07;;;;;;;9.35;3.65;;;-0.80;99.90;;;;;;5035092;28;20082;-77
2023/02/09 01:07:36;;;;;;;10.55;3.25;;;-0.80;99.90;;;;;;5034881;28;20438;-76
2023/02/09 01:10:01;;;;;;;9.30;3.35;;;-0.90;99.90;;;;;;5034215;28;20116;-75
2023/02/09 01:12:27;;;;;;;10.80;4.38;;;-0.90;99.90;;;;;;5033516;28;20574;-75
2023/02/09 01:14:53;;;;;;;11.50;3.53;;;-0.90;99.90;;;;;;5033575;28;20025;-76
2023/02/09 01:17:19;;;;;;;13.27;4.47;;;-0.90;99.90;;;;;;5033472;28;20113;-76
2023/02/09 01:19:45;;;;;;;17.50;4.80;;;-1.00;99.90;;;;;;5033860;28;20032;-76
2023/02/09 01:22:15;;;;;;;12.73;4.18;;;-1.00;99.90;;;;;;5033023;28;20029;-75
2023/02/09 01:24:40;;;;;;;11.55;4.50;;;-1.00;99.90;;;;;;5035057;28;20052;-75
2023/02/09 01:27:06;;;;;;;12.15;4.40;;;-1.00;99.90;;;;;;5033351;28;20025;-76
2023/02/09 01:29:34;;;;;;;11.90;4.40;;;-1.00;99.90;;;;;;5033368;28;20021;-76
2023/02/09 01:32:03;;;;;;;15.25;4.18;;;-1.10;99.90;;;;;;5033522;28;20030;-76
2023/02/09 01:34:28;;;;;;;12.35;4.95;;;-1.00;99.90;;;;;;5034459;28;20091;-76
2023/02/09 01:36:54;;;;;;;11.60;4.50;;;-0.90;99.90;;;;;;5033153;28;20022;-76
2023/02/09 01:39:20;;;;;;;10.05;3.95;;;-0.90;99.90;;;;;;5033118;28;20507;-76
2023/02/09 01:41:45;;;;;;;11.88;3.92;;;-0.90;99.90;;;;;;5032698;28;20342;-76
2023/02/09 01:44:13;;;;;;;14.80;4.80;;;-0.90;99.90;;;;;;5034184;28;20030;-76
2023/02/09 01:46:39;;;;;;;10.82;4.22;;;-0.80;99.90;;;;;;5032743;28;20029;-76
2023/02/09 01:49:17;;;;;;;8.23;3.20;;;-0.80;99.90;;;;;;5033964;28;20017;-77
2023/02/09 01:52:06;;;;;;;9.07;2.42;;;-0.80;99.90;;;;;;5032753;28;20495;-77
2023/02/09 01:54:48;;;;;;;11.43;3.42;;;-0.80;99.90;;;;;;5032812;28;20053;-75
2023/02/09 01:57:21;;;;;;;13.23;4.15;;;-0.90;99.90;;;;;;5033380;28;20465;-75
2023/02/09 01:59:55;;;;;;;11.60;4.13;;;-0.80;99.90;;;;;;5032699;28;20021;-75
2023/02/09 02:02:21;;;;;;;11.60;3.63;;;-0.90;99.90;;;;;;5032648;28;20477;-77
2023/02/09 02:04:50;;;;;;;9.80;3.83;;;-0.90;99.90;;;;;;5033116;28;20022;-77
2023/02/09 02:07:23;;;;;;;;;;;-0.90;99.90;;;;;;5033261;28;20542;-75
2023/02/09 02:09:49;;;;;;;8.93;3.22;;;-0.90;99.90;;;;;;5033878;28;19934;-77
2023/02/09 02:12:15;;;;;;;12.55;4.50;;;-0.90;99.90;;;;;;5033600;28;20404;-76
2023/02/09 02:14:41;;;;;;;12.38;4.10;;;-0.90;99.90;;;;;;5032246;28;20024;-76
2023/02/09 02:17:22;;;;;;;11.90;3.70;;;-0.90;99.90;;;;;;5032285;28;20075;-75
2023/02/09 02:20:22;;;;;;;10.00;4.30;;;-1.00;99.90;;;;;;5032388;28;20029;-76
2023/02/09 02:23:02;;;;;;;12.35;3.72;;;-1.00;99.90;;;;;;5039672;23;20029;-76
2023/02/09 02:25:49;;;;;;;11.38;4.18;;;-1.00;99.90;;;;;;5033062;28;20030;-75
2023/02/09 02:28:29;;;;;;;12.48;4.13;;;-1.00;99.90;;;;;;5033620;28;20053;-76
2023/02/09 02:31:16;;;;;;;12.43;3.95;;;-1.00;99.90;;;;;;5041660;28;20021;-76
2023/02/09 02:33:49;;;;;;;12.20;3.50;;;-1.00;99.90;;;;;;5052147;28;20025;-75
2023/02/09 02:36:32;;;;;;;8.93;3.75;;;-1.00;99.90;;;;;;5052053;28;20029;-76
2023/02/09 02:39:35;;;;;;;13.73;3.78;;;-1.00;99.90;;;;;;5052243;28;20029;-76
2023/02/09 02:45:14;;;;;;;10.57;4.03;;;-1.00;99.90;;;;;;5053468;28;20461;-76
2023/02/09 02:47:40;;;;;;;;;;;-1.00;99.90;;;;;;5053625;28;20017;-76
2023/02/09 02:50:21;;;;;;;10.20;3.45;;;-1.00;99.90;;;;;;5051877;28;19935;-76
2023/02/09 02:52:50;;;;;;;10.52;3.33;;;-1.00;99.90;;;;;;5053174;28;20488;-76
2023/02/09 02:55:19;;;;;;;9.60;3.50;;;-1.00;99.90;;;;;;5051983;28;20029;-76
2023/02/09 02:57:48;;;;;;;;;;;-1.10;99.90;;;;;;5053450;28;20078;-76
2023/02/09 03:00:20;;;;;;;8.38;3.33;;;-1.10;99.90;;;;;;5051699;28;19911;-76
2023/02/09 03:02:52;;;;;;;10.10;4.00;;;-1.10;99.90;;;;;;5051701;28;20112;-76
2023/02/09 03:05:21;;;;;;;12.93;4.00;;;-1.20;99.90;;;;;;5052209;28;20013;-76
2023/02/09 03:07:46;;;;;;;;;;;-1.20;99.90;;;;;;5052162;28;20025;-77
2023/02/09 03:10:41;;;;;;;12.13;3.67;;;-1.20;99.90;;;;;;5052910;28;19966;-77
2023/02/09 03:13:37;;;;;;;11.20;3.80;;;-1.20;99.90;;;;;;5039323;28;20403;-76
2023/02/09 03:16:30;;;;;;;9.52;3.47;;;-1.20;99.90;;;;;;5051912;28;20032;-76
2023/02/09 03:19:12;;;;;;;12.82;4.32;;;-1.20;99.90;;;;;;5053086;28;20036;-76
2023/02/09 03:21:51;;;;;;;13.23;4.10;;;-1.20;99.90;;;;;;5051538;28;20051;-76
2023/02/09 03:24:25;;;;;;;11.45;3.70;;;-1.10;99.90;;;;;;5053041;28;20053;-76
2023/02/09 03:26:56;;;;;;;8.05;3.33;;;-1.20;99.90;;;;;;5051702;28;20124;-76
2023/02/09 03:29:24;;;;;;;9.35;3.30;;;-1.10;99.90;;;;;;5051728;28;20067;-76
2023/02/09 03:31:50;;;;;;;6.80;3.17;;;-1.20;99.90;;;;;;5051543;28;20128;-77
2023/02/09 03:34:17;;;;;;;7.63;3.03;;;-1.10;99.90;;;;;;5051595;28;20545;-77
2023/02/09 03:36:48;;;;;;;11.15;3.13;;;-1.10;99.90;;;;;;5054027;28;20079;-76
2023/02/09 03:39:13;;;;;;;13.57;3.75;;;-1.10;99.90;;;;;;5055285;28;20021;-76
2023/02/09 03:41:39;;;;;;;7.68;3.38;;;-1.10;99.90;;;;;;5056334;28;20025;-76
2023/02/09 03:46:49;;;;;;;14.73;3.53;;;-1.10;99.90;;;;;;5057026;28;20035;-76
2023/02/09 03:49:17;;;;;;;9.75;3.38;;;-1.10;99.90;;;;;;5056393;28;20021;-76
2023/02/09 03:51:43;;;;;;;12.85;2.95;;;-1.20;99.90;;;;;;5054926;28;20078;-75
2023/02/09 03:54:09;;;;;;;11.15;4.20;;;-1.10;99.90;;;;;;5055162;28;20434;-76
2023/02/09 03:56:36;;;;;;;9.10;3.92;;;-1.20;99.90;;;;;;5054957;28;20039;-76
2023/02/09 03:59:02;;;;;;;12.98;3.35;;;-1.20;99.90;;;;;;5056200;28;20383;-76
2023/02/09 04:01:28;;;;;;;8.70;3.83;;;0.20;99.90;;;;;;5054830;28;20439;-76
2023/02/09 04:03:53;;;;;;;12.95;3.50;;;-1.20;99.90;;;;;;5054745;28;20082;-76
2023/02/09 04:06:19;;;;;;;11.95;3.90;;;-1.20;99.90;;;;;;5054721;28;20515;-75
2023/02/09 04:08:44;;;;;;;17.00;3.97;;;-1.30;99.90;;;;;;5056121;28;20096;-76
2023/02/09 04:11:10;;;;;;;9.73;2.88;;;-1.30;99.90;;;;;;5054717;28;20024;-76
2023/02/09 04:13:35;;;;;;;10.07;4.32;;;-1.30;99.90;;;;;;5055896;28;20503;-75
2023/02/09 04:16:01;;;;;;;9.23;3.83;;;-1.30;99.90;;;;;;5055911;28;20029;-76
2023/02/09 04:18:27;;;;;;;10.23;4.00;;;-1.30;99.90;;;;;;5055778;28;20104;-76
2023/02/09 04:20:52;;;;;;;7.95;3.13;;;-1.30;99.90;;;;;;5054287;28;20024;-76
2023/02/09 04:23:18;;;;;;;9.15;3.35;;;-1.30;99.90;;;;;;5054302;28;20098;-76
2023/02/09 04:25:43;;;;;;;9.55;3.40;;;-1.30;99.90;;;;;;5054430;28;20025;-76
2023/02/09 04:28:09;;;;;;;7.63;2.80;;;-1.30;99.90;;;;;;5054433;28;20071;-76
2023/02/09 04:30:35;;;;;;;7.00;2.72;;;-1.30;99.90;;;;;;5054280;28;20052;-76
2023/02/09 04:33:00;;;;;;;9.73;3.85;;;-1.00;99.90;;;;;;5055515;28;20546;-75
2023/02/09 04:35:26;;;;;;;9.45;3.28;;;-1.30;99.90;;;;;;5054238;28;20035;-76
2023/02/09 04:37:51;;;;;;;9.23;3.47;;;-1.30;99.90;;;;;;5055454;28;20017;-75
2023/02/09 04:40:17;;;;;;;13.13;3.72;;;-1.30;99.90;;;;;;5055355;28;20024;-76
2023/02/09 04:42:46;;;;;;;10.68;3.42;;;-1.30;99.90;;;;;;5054024;28;20439;-76
2023/02/09 04:45:12;;;;;;;8.48;3.25;;;-1.30;99.90;;;;;;5054109;28;20498;-75
2023/02/09 04:47:38;;;;;;;9.57;3.75;;;-1.30;99.90;;;;;;5053421;28;20112;-75
2023/02/09 04:50:03;;;;;;;6.57;2.58;;;-1.30;99.90;;;;;;5053878;28;20044;-76
2023/02/09 04:52:29;;;;;;;7.82;2.80;;;-1.30;99.90;;;;;;5053827;28;20032;-76
2023/02/09 04:54:55;;;;;;;7.80;3.00;;;-1.30;99.90;;;;;;5053795;28;20025;-75
2023/02/09 05:00:05;;;;;;;10.57;3.15;;;-1.30;99.90;;;;;;5055579;28;20178;-76
2023/02/09 05:02:30;;;;;;;13.05;4.18;;;-1.30;99.90;;;;;;5054750;28;20036;-75
2023/02/09 05:04:56;;;;;;;7.63;2.92;;;-1.30;99.90;;;;;;5055450;28;20491;-75
2023/02/09 05:07:22;;;;;;;9.65;3.08;;;-1.30;99.90;;;;;;5053375;28;20100;-75
2023/02/09 05:09:48;;;;;;;9.90;3.67;;;-1.20;99.90;;;;;;5053901;28;20024;-76
2023/02/09 05:12:14;;;;;;;8.10;3.28;;;-1.20;99.90;;;;;;5053455;28;20033;-76
2023/02/09 05:14:40;;;;;;;8.00;2.95;;;-1.20;99.90;;;;;;5053417;28;20025;-76
2023/02/09 05:17:05;;;;;;;12.93;4.32;;;-1.20;99.90;;;;;;5053377;28;20032;-76
2023/02/09 05:19:31;;;;;;;7.53;3.03;;;-1.20;99.90;;;;;;5054565;28;20032;-75
2023/02/09 05:21:57;;;;;;;7.13;2.88;;;-1.20;99.90;;;;;;5054453;28;20036;-75
2023/02/09 05:24:26;;;;;;;9.27;2.97;;;-1.20;99.90;;;;;;5053229;28;20017;-77
2023/02/09 05:26:51;;;;;;;10.13;3.13;;;-1.20;99.90;;;;;;5054571;28;20025;-78
2023/02/09 05:29:17;;;;;;;12.40;3.30;;;-1.20;99.90;;;;;;5053201;28;20071;-75
2023/02/09 05:31:42;;;;;;;8.00;3.60;;;-1.20;99.90;;;;;;5052912;28;20083;-75
2023/02/09 05:34:11;;;;;;;8.05;2.47;;;-1.20;99.90;;;;;;5054967;28;20017;-76
2023/02/09 05:36:36;;;;;;;7.88;2.90;;;-1.30;99.90;;;;;;5053088;28;20503;-75
2023/02/09 05:39:02;;;;;;;9.80;3.22;;;-1.30;99.90;;;;;;5052927;28;20013;-75
2023/02/09 05:44:15;;;;;;;9.30;3.35;;;-1.30;99.90;;;;;;5054939;28;20120;-76
2023/02/09 05:46:40;;;;;;;7.35;2.63;;;-1.20;99.90;;;;;;5054247;28;20495;-76
2023/02/09 05:49:06;;;;;;;8.05;2.72;;;-1.10;99.90;;;;;;5053431;28;20024;-77
2023/02/09 05:51:31;;;;;;;10.98;3.28;;;-1.10;99.90;;;;;;5054326;28;20032;-77
2023/02/09 05:53:57;;;;;;;7.85;2.72;;;-1.00;99.90;;;;;;5053011;28;20552;-76
2023/02/09 05:56:22;;;;;;;7.88;3.10;;;-0.90;99.90;;;;;;5052832;28;20032;-76
2023/02/09 05:58:48;;;;;;;8.48;3.28;;;-0.80;99.90;;;;;;5053469;28;20017;-77
2023/02/09 06:01:14;;;;;;;6.70;2.92;;;-0.80;99.90;;;;;;5052542;28;20102;-77
2023/02/09 06:03:39;;;;;;;5.80;2.85;;;-0.80;99.90;;;;;;5053985;28;20025;-77
2023/02/09 06:06:05;;;;;;;10.38;3.05;;;-0.80;99.90;;;;;;5052680;28;20472;-77
2023/02/09 06:08:33;;;;;;;7.60;2.53;;;-0.70;99.90;;;;;;5054378;28;20029;-78
2023/02/09 06:11:01;;;;;;;9.70;2.92;;;-0.60;99.90;;;;;;5052517;28;20025;-76
2023/02/09 06:13:26;;;;;;;10.63;2.80;;;-0.60;99.90;;;;;;5053630;28;20044;-77
2023/02/09 06:15:52;;;;;;;7.75;2.42;;;-0.60;99.90;;;;;;5053584;28;20025;-75
2023/02/09 06:18:20;;;;;;;8.27;2.80;;;-0.50;99.90;;;;;;5054176;28;20029;-76
2023/02/09 06:20:46;;;;;;;11.18;3.38;;;-0.50;99.90;;;;;;5052835;28;20028;-77
2023/02/09 06:23:12;;;;;;;8.27;3.00;;;-0.50;99.90;;;;;;5053099;28;20024;-76
2023/02/09 06:25:39;;;;;;;8.38;3.47;;;-0.60;99.90;;;;;;5054041;28;20147;-77
2023/02/09 06:28:04;;;;;;;10.27;3.40;;;-0.50;99.90;;;;;;5053688;28;20017;-74
2023/02/09 06:30:30;;;;;;;13.73;4.05;;;-0.50;99.90;;;;;;5052286;28;20256;-74
2023/02/09 06:32:56;;;;;;;10.07;3.40;;;-0.50;99.90;;;;;;5052826;28;20021;-75
2023/02/09 06:35:21;;;;;;;8.35;2.83;;;-0.60;99.90;;;;;;5054421;28;20060;-75
2023/02/09 06:37:47;;;;;;;9.10;3.70;;;-0.50;99.90;;;;;;5054060;28;20476;-74
2023/02/09 06:40:12;;;;;;;11.20;3.42;;;-0.60;99.90;;;;;;5052696;28;20025;-74
2023/02/09 06:42:44;;;;;;;13.70;3.40;;;-0.60;99.90;;;;;;5052945;28;20553;-74
2023/02/09 06:45:15;;;;;;;10.55;3.72;;;-0.60;99.90;;;;;;5054162;28;20021;-76
2023/02/09 06:47:44;;;;;;;8.70;3.17;;;-0.60;99.90;;;;;;5053971;28;20025;-75
2023/02/09 06:50:12;;;;;;;9.25;3.10;;;-0.60;99.90;;;;;;5053811;28;20031;-76
2023/02/09 06:52:37;;;;;;;12.90;3.75;;;-0.60;99.90;;;;;;5053762;28;20024;-76
2023/02/09 06:55:04;;;;;;;11.40;3.45;;;-0.60;99.90;;;;;;5052828;28;20025;-78
2023/02/09 06:57:30;;;;;;;14.07;3.28;;;-0.50;99.90;;;;;;5053377;28;20044;-76
2023/02/09 06:59:56;;;;;;;7.97;3.30;;;2.30;99.90;;;;;;5052691;28;20513;-76
2023/02/09 07:02:22;;;;;;;11.18;3.70;;;-0.50;99.90;;;;;;5052374;28;20021;-76
2023/02/09 07:04:47;;;;;;;11.18;2.70;;;-0.50;99.90;;;;;;5052358;28;20099;-76
2023/02/09 07:07:13;;;;;;;11.82;3.50;;;-0.50;99.90;;;;;;5053642;28;20017;-76
2023/02/09 07:09:39;;;;;;;11.20;3.60;;;-0.50;99.90;;;;;;5053702;28;20029;-76
2023/02/09 07:12:05;;;;;;;9.50;3.63;;;-0.50;99.90;;;;;;5057117;28;20096;-76
2023/02/09 07:14:30;;;;;;;9.18;3.25;;;-0.50;99.90;;;;;;5056396;28;20029;-76
2023/02/09 07:16:56;;;;;;;14.68;3.33;;;-0.50;99.90;;;;;;5056511;28;20416;-76
2023/02/09 07:19:22;;;;;;;8.40;3.10;;;-0.50;99.90;;;;;;5056078;28;20444;-76
2023/02/09 07:21:48;;;;;;;7.00;2.38;;;-0.50;99.90;;;;;;5056167;28;20053;-76
2023/02/09 07:24:13;;;;;;;8.57;3.35;;;-0.50;99.90;;;;;;5056373;28;20013;-76
2023/02/09 07:26:39;;;;;;;9.75;3.50;;;-0.50;99.90;;;;;;5055473;28;20021;-76
2023/02/09 07:29:08;;;;;;;7.25;2.95;;;-0.50;99.90;;;;;;5056217;28;20021;-76
2023/02/09 07:31:33;;;;;;;8.98;2.88;;;-0.50;99.90;;;;;;5057450;28;20028;-76
2023/02/09 07:33:59;;;;;;;7.70;2.60;;;-0.40;99.90;;;;;;5057546;28;20017;-76
2023/02/09 07:36:25;;;;;;;10.48;3.42;;;-0.40;99.90;;;;;;5056161;28;20025;-76
2023/02/09 07:38:50;;;;;;;9.75;3.08;;;-0.40;99.90;;;;;;5055879;28;20600;-76
2023/02/09 07:41:20;;;;;;;10.70;3.42;;;-0.40;99.90;;;;;;5057410;28;20013;-76
2023/02/09 07:43:46;;;;;;;10.73;3.00;;;-0.40;99.90;;;;;;5055813;28;20124;-76
2023/02/09 07:46:15;;;;;;;12.73;3.67;;;-0.30;99.90;;;;;;5057144;28;20025;-76
2023/02/09 07:48:41;;;;;;;7.13;3.15;;;-0.30;99.90;;;;;;5055879;28;20040;-76
2023/02/09 07:51:11;;;;;;;13.18;3.55;;;-0.30;99.90;;;;;;5056715;28;20476;-76
2023/02/09 07:53:37;;;;;;;8.82;3.35;;;-0.30;99.90;;;;;;5057403;28;20025;-76
2023/02/09 07:56:04;;;;;;;11.40;3.88;;;-0.30;99.90;;;;;;5056983;28;20028;-76
2023/02/09 07:58:30;;;;;;;12.32;4.20;;;-0.30;99.90;;;;;;5056327;28;20487;-76
2023/02/09 08:01:05;;;;;;;10.15;3.72;;;-0.20;99.90;;;;;;5055624;28;20032;-76
2023/02/09 08:03:34;;;;;;;9.77;3.30;;;-0.10;99.90;;;;;;5056897;28;20029;-76
2023/02/09 08:06:04;;;;;;;11.27;3.10;;;-0.10;99.90;;;;;;5056688;28;20025;-77
2023/02/09 08:08:30;;;;;;;9.55;3.00;;;-0.10;99.90;;;;;;5057177;28;20025;-76
2023/02/09 08:10:58;;;;;;;12.48;3.80;;;0.00;99.90;;;;;;5055221;28;20017;-76
2023/02/09 08:13:27;;;;;;;10.20;3.72;;;0.10;99.90;;;;;;5056422;28;20053;-76
2023/02/09 08:15:59;;;;;;;13.50;4.00;;;0.20;99.90;;;;;;5056515;28;20384;-76
2023/02/09 08:18:30;;;;;;;13.43;3.63;;;0.20;99.90;;;;;;5055037;28;20017;-76
2023/02/09 08:20:59;;;;;;;12.25;4.05;;;0.30;99.90;;;;;;5056303;28;20033;-76
2023/02/09 08:23:31;;;;;;;9.95;3.45;;;0.30;99.90;;;;;;5055686;28;20025;-76
2023/02/09 08:26:00;;;;;;;10.07;4.10;;;0.40;99.90;;;;;;5056205;28;20021;-76
2023/02/09 08:28:25;;;;;;;;;;;0.40;99.90;;;;;;5056545;28;20100;-76
2023/02/09 08:30:51;;;;;;;7.38;3.30;;;0.50;99.90;;;;;;5054635;28;19951;-76
2023/02/09 08:33:17;;;;;;;9.95;3.53;;;0.60;99.90;;;;;;5054844;28;20036;-76
2023/02/09 08:35:42;;;;;;;12.57;4.03;;;0.60;99.90;;;;;;5054347;28;20032;-77
2023/02/09 08:38:08;;;;;;;11.50;3.13;;;0.70;99.90;;;;;;5056103;28;20108;-76
2023/02/09 08:40:40;;;;;;;9.13;3.28;;;0.80;99.90;;;;;;5056745;28;20099;-76
2023/02/09 08:43:06;;;;;;;13.98;4.45;;;0.90;99.90;;;;;;5056316;28;20021;-76
2023/02/09 08:45:35;;;;;;;9.13;3.33;;;0.90;99.90;;;;;;5056029;28;20423;-77
2023/02/09 08:48:00;;;;;;;11.95;4.20;;;1.00;99.90;;;;;;5056132;28;20096;-77
2023/02/09 08:50:26;;;;;;;10.77;3.50;;;1.10;99.90;;;;;;5056646;28;20413;-77
2023/02/09 08:52:52;;;;;;;14.52;4.00;;;1.10;99.90;;;;;;5055140;28;20048;-76
2023/02/09 08:55:17;;;;;;;10.85;3.83;;;1.10;99.90;;;;;;5056124;28;20021;-76
2023/02/09 08:57:43;;;;;;;10.88;3.80;;;1.10;99.90;;;;;;5054783;28;20063;-76
2023/02/09 09:00:09;;;;;;;15.20;4.55;;;1.20;99.90;;;;;;5055888;28;20060;-76
2023/02/09 09:02:35;;;;;;;10.55;4.57;;;1.20;99.90;;;;;;5055854;28;20372;-77
2023/02/09 09:05:00;;;;;;;11.35;3.65;;;1.30;99.90;;;;;;5055883;28;20028;-77
2023/02/09 09:07:26;;;;;;;10.07;4.05;;;1.30;99.90;;;;;;5055763;28;20029;-76
2023/02/09 09:09:52;;;;;;;13.73;4.20;;;1.40;99.90;;;;;;5054550;28;20023;-76
2023/02/09 09:12:17;;;;;;;11.52;3.58;;;1.40;99.90;;;;;;5054465;28;20025;-76
2023/02/09 09:14:43;;;;;;;11.38;4.03;;;1.40;99.90;;;;;;5054373;28;20029;-76
2023/02/09 09:17:09;;;;;;;11.25;3.92;;;1.50;99.90;;;;;;5054316;28;20032;-75
2023/02/09 09:19:35;;;;;;;9.90;3.83;;;1.60;99.90;;;;;;5053909;28;20017;-77
2023/02/09 09:22:02;;;;;;;12.90;4.35;;;1.70;99.90;;;;;;5054947;28;20090;-75
2023/02/09 09:24:31;;;;;;;13.50;4.20;;;1.70;99.90;;;;;;5054216;28;20025;-75
2023/02/09 09:26:57;;;;;;;13.77;3.45;;;1.80;99.90;;;;;;5055468;28;20028;-76
2023/02/09 09:29:23;;;;;;;12.05;3.70;;;1.90;99.90;;;;;;5055117;28;20096;-76
2023/02/09 09:31:49;;;;;;;11.25;3.70;;;2.00;99.90;;;;;;5055691;28;20032;-75
2023/02/09 09:34:15;;;;;;;8.68;3.65;;;2.10;99.90;;;;;;5053674;28;20021;-76
2023/02/09 09:36:40;;;;;;;12.07;3.90;;;2.10;99.90;;;;;;5054698;28;20033;-75
2023/02/09 09:39:06;;;;;;;9.02;4.30;;;2.30;99.90;;;;;;5053669;28;20021;-76
2023/02/09 09:41:37;;;;;;;10.48;3.63;;;2.40;99.90;;;;;;5054527;28;20499;-76
2023/02/09 09:44:17;;;;;;;10.40;4.35;;;2.50;99.90;;;;;;5053691;28;20087;-75
2023/02/09 09:46:47;;;;;;;13.70;4.47;;;2.70;99.90;;;;;;5053767;28;20037;-75
2023/02/09 09:49:23;;;;;;;11.63;3.97;;;2.70;99.90;;;;;;5055033;28;20074;-75
2023/02/09 09:52:21;;;;;;;13.73;4.15;;;3.30;99.90;;;;;;5054722;28;20475;-75
2023/02/09 09:54:47;;;;;;;13.10;3.43;;;3.00;99.90;;;;;;5054898;28;20045;-75
2023/02/09 09:57:24;;;;;;;12.25;3.95;;;3.10;99.90;;;;;;5054712;28;20464;-75
2023/02/09 09:59:51;;;;;;;11.63;4.47;;;3.20;99.90;;;;;;5053322;28;20095;-75
2023/02/09 10:02:22;;;;;;;9.68;4.00;;;3.30;99.90;;;;;;5053172;28;20075;-75
2023/02/09 10:04:48;;;;;;;10.38;4.10;;;3.30;99.90;;;;;;5054468;28;20087;-75
2023/02/09 10:07:20;;;;;;;11.80;4.80;;;3.40;99.90;;;;;;5054501;28;20426;-75
2023/02/09 10:09:45;;;;;;;14.25;4.80;;;3.40;99.90;;;;;;5054457;28;20029;-76
2023/02/09 10:12:42;;;;;;;12.15;4.20;;;3.50;99.90;;;;;;5052999;28;20467;-76
2023/02/09 10:15:36;;;;;;;14.40;4.15;;;3.70;99.90;;;;;;5053098;28;20119;-75
2023/02/09 10:18:01;;;;;;;10.77;4.20;;;3.70;99.90;;;;;;5054949;28;20040;-75
2023/02/09 10:20:55;;;;;;;11.80;4.43;;;3.70;99.90;;;;;;5054139;28;20024;-75
2023/02/09 10:23:43;;;;;;;10.32;4.13;;;3.60;99.90;;;;;;5054162;28;20029;-75
2023/02/09 10:26:09;;;;;;;11.48;5.10;;;3.70;99.90;;;;;;5052904;28;20029;-75
2023/02/09 10:28:40;;;;;;;9.60;4.75;;;3.70;99.90;;;;;;5052889;28;20032;-75
2023/02/09 10:31:33;;;;;;;11.55;4.65;;;3.80;99.90;;;;;;5053909;28;20029;-75
2023/02/09 10:34:12;;;;;;;12.32;4.95;;;3.90;99.90;;;;;;5044825;28;20048;-75
2023/02/09 10:36:51;;;;;;;13.95;4.80;;;3.90;99.90;;;;;;5052856;28;20025;-76
2023/02/09 10:39:22;;;;;;;15.20;5.15;;;3.80;99.90;;;;;;5053883;28;20387;-75
2023/02/09 10:41:51;;;;;;;13.52;4.97;;;3.80;99.90;;;;;;5053658;28;20071;-77
2023/02/09 10:44:17;;;;;;;;;;;3.90;99.90;;;;;;5054229;28;20060;-75
2023/02/09 10:46:43;;;;;;;16.00;5.93;;;3.90;99.90;;;;;;5053731;28;19905;-75
2023/02/09 10:49:38;;;;;;;16.88;5.15;;;3.80;99.90;;;;;;5053761;28;20026;-75
2023/02/09 10:52:18;;;;;;;12.07;5.63;;;3.90;99.90;;;;;;5054336;28;20029;-75
2023/02/09 10:54:55;;;;;;;14.02;4.90;;;3.90;99.90;;;;;;5052233;28;20047;-75
2023/02/09 10:57:23;;;;;;;14.73;5.65;;;4.00;99.90;;;;;;5052553;28;20494;-75
2023/02/09 10:59:58;;;;;;;14.82;5.78;;;4.00;99.90;;;;;;5053796;28;20021;-75
2023/02/09 11:02:40;;;;;;;14.20;5.45;;;4.10;99.90;;;;;;5052154;28;20110;-75
2023/02/09 11:05:21;;;;;;;16.15;5.70;;;4.10;99.90;;;;;;5052316;28;20361;-75
2023/02/09 11:08:14;;;;;;;15.93;5.90;;;4.10;99.90;;;;;;5053748;28;20411;-75
2023/02/09 11:11:04;;;;;;;15.63;6.72;;;4.20;99.90;;;;;;5051868;28;20037;-75
2023/02/09 11:13:31;;;;;;;15.63;6.30;;;4.30;99.90;;;;;;5052274;28;20119;-75
2023/02/09 11:16:43;;;;;;;18.42;7.40;;;4.40;99.90;;;;;;5052249;28;20032;-77
2023/02/09 11:19:44;;;;;;;15.95;6.10;;;4.50;99.90;;;;;;5053773;28;20434;-75
2023/02/09 11:22:19;;;;;;;17.13;6.43;;;4.60;99.90;;;;;;5021528;28;20051;-77
2023/02/09 11:25:12;;;;;;;19.48;7.00;;;4.70;99.90;;;;;;5053452;28;20021;-77
2023/02/09 11:27:50;;;;;;;17.17;6.97;;;4.70;99.90;;;;;;5053802;28;20026;-77
2023/02/09 11:30:43;;;;;;;16.27;6.40;;;4.70;99.90;;;;;;5052064;28;20028;-75
2023/02/09 11:33:37;;;;;;;18.08;7.13;;;4.80;99.90;;;;;;5051922;28;20329;-77
2023/02/09 11:36:34;;;;;;;16.23;6.60;;;4.90;99.90;;;;;;5053651;28;20021;-78
2023/02/09 11:39:09;;;;;;;17.55;5.63;;;5.10;99.90;;;;;;5053658;28;20076;-76
2023/02/09 11:44:38;;;;;;;21.65;6.70;;;5.30;99.90;;;;;;5053825;28;20114;-76
2023/02/09 11:47:09;;;;;;;17.88;6.90;;;5.40;99.90;;;;;;5052534;28;20544;-77
2023/02/09 11:50:04;;;;;;;15.07;6.85;;;5.40;99.90;;;;;;5053271;28;20079;-77
2023/02/09 11:52:41;;;;;;;14.55;6.28;;;5.40;99.90;;;;;;5049705;28;20043;-76
2023/02/09 11:55:23;;;;;;;15.07;6.40;;;5.30;99.90;;;;;;5052424;28;20071;-76
2023/02/09 11:58:12;;;;;;;14.05;5.93;;;5.20;99.90;;;;;;5054542;28;20017;-76
2023/02/09 12:00:51;;;;;;;16.00;5.53;;;5.20;99.90;;;;;;5056328;28;20091;-76
2023/02/09 12:03:16;;;;;;;18.55;7.30;;;5.20;99.90;;;;;;5055491;28;20021;-75
2023/02/09 12:05:43;;;;;;;16.55;6.82;;;5.30;99.90;;;;;;5056557;28;20017;-76
2023/02/09 12:08:32;;;;;;;17.05;5.85;;;5.20;99.90;;;;;;5055272;28;20091;-76
2023/02/09 12:11:16;;;;;;;17.02;6.70;;;5.30;99.90;;;;;;5055343;28;20021;-75
2023/02/09 12:14:10;;;;;;;19.40;6.78;;;5.30;99.90;;;;;;5057138;28;20057;-75
2023/02/09 12:16:42;;;;;;;16.02;5.70;;;5.40;99.90;;;;;;5055384;28;20025;-75
2023/02/09 12:19:35;;;;;;;28.73;7.80;;;5.40;99.90;;;;;;5057012;28;20029;-75
2023/02/09 12:22:34;;;;;;;15.45;6.32;;;5.50;99.90;;;;;;5051936;28;20041;-75
2023/02/09 12:25:21;;;;;;;13.65;6.13;;;5.70;99.90;;;;;;5055151;28;20025;-76
2023/02/09 12:28:11;;;;;;;17.30;6.30;;;5.80;99.90;;;;;;5056149;28;20100;-75
2023/02/09 12:30:40;;;;;;;15.65;7.88;;;5.80;99.90;;;;;;5055996;28;20021;-76
2023/02/09 12:33:25;;;;;;;17.45;6.95;;;5.90;99.90;;;;;;5056241;28;20048;-75
2023/02/09 12:36:09;;;;;;;22.20;6.68;;;6.90;99.90;;;;;;5055837;28;20040;-75
2023/02/09 12:38:50;;;;;;;16.30;6.18;;;6.30;99.90;;;;;;5056073;28;20028;-75
2023/02/09 12:41:27;;;;;;;20.05;7.18;;;6.50;99.90;;;;;;5056741;28;20383;-76
2023/02/09 12:44:10;;;;;;;16.25;7.60;;;6.60;99.90;;;;;;5056473;28;20043;-76
2023/02/09 12:46:51;;;;;;;17.73;7.03;;;6.70;99.90;;;;;;5055872;28;20025;-76
2023/02/09 12:49:35;;;;;;;20.63;6.43;;;6.80;99.90;;;;;;5056067;28;20040;-76
2023/02/09 12:52:00;;;;;;;21.27;6.97;;;6.90;99.90;;;;;;5054795;28;20031;-76
2023/02/09 12:54:29;;;;;;;18.52;7.00;;;7.00;99.90;;;;;;5054865;28;20419;-76
2023/02/09 12:56:55;;;;;;;28.70;8.52;;;6.90;99.90;;;;;;5055839;28;20056;-76
2023/02/09 12:59:24;;;;;;;15.32;6.50;;;6.90;99.90;;;;;;5054421;28;20442;-76
2023/02/09 13:02:09;;;;;;;21.20;7.47;;;6.90;99.90;;;;;;5055882;28;20025;-76
2023/02/09 13:05:04;;;;;;;15.85;7.28;;;6.90;99.90;;;;;;5054274;28;20028;-76
2023/02/09 13:07:32;;;;;;;16.95;6.90;;;6.90;99.90;;;;;;5054319;28;20021;-75
2023/02/09 13:10:27;;;;;;;13.75;7.05;;;6.90;99.90;;;;;;5053794;28;20021;-76
2023/02/09 13:13:05;;;;;;;18.90;8.05;;;6.90;99.90;;;;;;5054025;28;20083;-75
2023/02/09 13:15:57;;;;;;;20.88;7.32;;;6.90;99.90;;;;;;5055466;28;20033;-76
2023/02/09 13:18:44;;;;;;;20.50;7.55;;;6.80;99.90;;;;;;5055413;28;20031;-75
2023/02/09 13:21:39;;;;;;;22.08;8.52;;;6.80;99.90;;;;;;5054941;28;20021;-75